sensor_id;sensor_type;location;lat;lon;timestamp;pressure;altitude;pressure_sealevel;temperature
7882;BMP180;3986;41.884;23.466;2022-12-10T00:01:29;91569.00;;;9.40
7882;BMP180;3986;41.884;23.466;2022-12-10T00:03:56;91569.00;;;9.40
7882;BMP180;3986;41.884;23.466;2022-12-10T00:06:25;91555.00;;;9.50
7882;BMP180;3986;41.884;23.466;2022-12-10T00:08:52;91569.00;;;9.30
7882;BMP180;3986;41.884;23.466;2022-12-10T00:11:20;91560.00;;;9.10
7882;BMP180;3986;41.884;23.466;2022-12-10T00:13:48;91561.00;;;8.90
7882;BMP180;3986;41.884;23.466;2022-12-10T00:16:18;91568.00;;;9.00
7882;BMP180;3986;41.884;23.466;2022-12-10T00:18:46;91558.00;;;9.30
7882;BMP180;3986;41.884;23.466;2022-12-10T00:21:15;91570.00;;;9.40
7882;BMP180;3986;41.884;23.466;2022-12-10T00:23:43;91567.00;;;9.40
7882;BMP180;3986;41.884;23.466;2022-12-10T00:26:11;91584.00;;;9.60
7882;BMP180;3986;41.884;23.466;2022-12-10T00:28:39;91507.00;;;9.40
7882;BMP180;3986;41.884;23.466;2022-12-10T00:31:08;91560.00;;;9.70
7882;BMP180;3986;41.884;23.466;2022-12-10T00:33:38;91557.00;;;9.70
7882;BMP180;3986;41.884;23.466;2022-12-10T00:36:07;91561.00;;;9.20
7882;BMP180;3986;41.884;23.466;2022-12-10T00:38:34;91521.00;;;8.90
7882;BMP180;3986;41.884;23.466;2022-12-10T00:41:02;91547.00;;;9.60
7882;BMP180;3986;41.884;23.466;2022-12-10T00:43:28;91545.00;;;9.60
7882;BMP180;3986;41.884;23.466;2022-12-10T00:45:56;91548.00;;;9.50
7882;BMP180;3986;41.884;23.466;2022-12-10T00:48:23;91564.00;;;9.10
7882;BMP180;3986;41.884;23.466;2022-12-10T00:50:59;91559.00;;;9.30
7882;BMP180;3986;41.884;23.466;2022-12-10T00:53:27;91553.00;;;9.40
7882;BMP180;3986;41.884;23.466;2022-12-10T00:55:55;91543.00;;;9.40
7882;BMP180;3986;41.884;23.466;2022-12-10T00:58:22;91543.00;;;9.40
7882;BMP180;3986;41.884;23.466;2022-12-10T01:00:49;91525.00;;;9.20
7882;BMP180;3986;41.884;23.466;2022-12-10T01:03:16;91538.00;;;9.10
7882;BMP180;3986;41.884;23.466;2022-12-10T01:05:43;91541.00;;;9.00
7882;BMP180;3986;41.884;23.466;2022-12-10T01:08:11;91538.00;;;9.00
7882;BMP180;3986;41.884;23.466;2022-12-10T01:10:38;91530.00;;;9.10
7882;BMP180;3986;41.884;23.466;2022-12-10T01:13:04;91546.00;;;9.40
7882;BMP180;3986;41.884;23.466;2022-12-10T01:15:37;91543.00;;;9.30
7882;BMP180;3986;41.884;23.466;2022-12-10T01:18:04;91550.00;;;8.80
7882;BMP180;3986;41.884;23.466;2022-12-10T01:20:34;91547.00;;;8.60
7882;BMP180;3986;41.884;23.466;2022-12-10T01:23:01;91537.00;;;9.10
7882;BMP180;3986;41.884;23.466;2022-12-10T01:25:30;91543.00;;;9.10
7882;BMP180;3986;41.884;23.466;2022-12-10T01:27:57;91538.00;;;8.90
7882;BMP180;3986;41.884;23.466;2022-12-10T01:30:23;91537.00;;;8.90
7882;BMP180;3986;41.884;23.466;2022-12-10T01:32:50;91528.00;;;9.20
7882;BMP180;3986;41.884;23.466;2022-12-10T01:35:17;91528.00;;;9.40
7882;BMP180;3986;41.884;23.466;2022-12-10T01:37:44;91512.00;;;9.40
7882;BMP180;3986;41.884;23.466;2022-12-10T01:40:11;91499.00;;;9.40
7882;BMP180;3986;41.884;23.466;2022-12-10T01:42:39;91505.00;;;9.20
7882;BMP180;3986;41.884;23.466;2022-12-10T01:45:09;91513.00;;;9.20
7882;BMP180;3986;41.884;23.466;2022-12-10T01:47:37;91500.00;;;9.30
7882;BMP180;3986;41.884;23.466;2022-12-10T01:50:05;91504.00;;;9.20
7882;BMP180;3986;41.884;23.466;2022-12-10T01:52:33;91471.00;;;9.40
7882;BMP180;3986;41.884;23.466;2022-12-10T01:54:59;91500.00;;;9.40
7882;BMP180;3986;41.884;23.466;2022-12-10T01:57:27;91504.00;;;9.50
7882;BMP180;3986;41.884;23.466;2022-12-10T01:59:58;91477.00;;;9.40
7882;BMP180;3986;41.884;23.466;2022-12-10T02:02:37;91500.00;;;9.00
7882;BMP180;3986;41.884;23.466;2022-12-10T02:05:17;91500.00;;;8.80
7882;BMP180;3986;41.884;23.466;2022-12-10T02:07:54;91509.00;;;8.90
7882;BMP180;3986;41.884;23.466;2022-12-10T02:10:32;91501.00;;;9.00
7882;BMP180;3986;41.884;23.466;2022-12-10T02:13:07;91502.00;;;9.40
7882;BMP180;3986;41.884;23.466;2022-12-10T02:15:41;91492.00;;;9.50
7882;BMP180;3986;41.884;23.466;2022-12-10T02:18:13;91490.00;;;9.20
7882;BMP180;3986;41.884;23.466;2022-12-10T02:20:42;91356.00;;;8.60
7882;BMP180;3986;41.884;23.466;2022-12-10T02:23:12;91491.00;;;8.80
7882;BMP180;3986;41.884;23.466;2022-12-10T02:25:43;91496.00;;;8.90
7882;BMP180;3986;41.884;23.466;2022-12-10T02:28:16;91491.00;;;9.00
7882;BMP180;3986;41.884;23.466;2022-12-10T02:30:46;91490.00;;;8.90
7882;BMP180;3986;41.884;23.466;2022-12-10T02:33:14;91488.00;;;9.10
7882;BMP180;3986;41.884;23.466;2022-12-10T02:35:43;91481.00;;;9.30
7882;BMP180;3986;41.884;23.466;2022-12-10T02:38:16;91477.00;;;9.20
7882;BMP180;3986;41.884;23.466;2022-12-10T02:40:47;91485.00;;;9.50
7882;BMP180;3986;41.884;23.466;2022-12-10T02:43:15;91484.00;;;9.20
7882;BMP180;3986;41.884;23.466;2022-12-10T02:45:45;91479.00;;;9.20
7882;BMP180;3986;41.884;23.466;2022-12-10T02:48:13;91473.00;;;9.10
7882;BMP180;3986;41.884;23.466;2022-12-10T02:50:40;91472.00;;;9.30
7882;BMP180;3986;41.884;23.466;2022-12-10T02:53:07;91453.00;;;9.10
7882;BMP180;3986;41.884;23.466;2022-12-10T02:55:48;91454.00;;;9.10
7882;BMP180;3986;41.884;23.466;2022-12-10T02:58:24;91467.00;;;8.90
7882;BMP180;3986;41.884;23.466;2022-12-10T03:00:58;91457.00;;;8.80
7882;BMP180;3986;41.884;23.466;2022-12-10T03:03:36;91473.00;;;9.20
7882;BMP180;3986;41.884;23.466;2022-12-10T03:06:09;91463.00;;;9.00
7882;BMP180;3986;41.884;23.466;2022-12-10T03:08:41;91461.00;;;9.10
7882;BMP180;3986;41.884;23.466;2022-12-10T03:11:13;91445.00;;;9.20
7882;BMP180;3986;41.884;23.466;2022-12-10T03:13:49;91450.00;;;9.40
7882;BMP180;3986;41.884;23.466;2022-12-10T03:16:20;91461.00;;;9.40
7882;BMP180;3986;41.884;23.466;2022-12-10T03:18:51;91461.00;;;9.20
7882;BMP180;3986;41.884;23.466;2022-12-10T03:21:19;91449.00;;;9.20
7882;BMP180;3986;41.884;23.466;2022-12-10T03:23:47;91458.00;;;9.30
7882;BMP180;3986;41.884;23.466;2022-12-10T03:26:16;91446.00;;;9.40
7882;BMP180;3986;41.884;23.466;2022-12-10T03:28:47;91449.00;;;9.10
7882;BMP180;3986;41.884;23.466;2022-12-10T03:31:18;91460.00;;;8.90
7882;BMP180;3986;41.884;23.466;2022-12-10T03:33:46;91463.00;;;9.00
7882;BMP180;3986;41.884;23.466;2022-12-10T03:36:14;91463.00;;;9.10
7882;BMP180;3986;41.884;23.466;2022-12-10T03:38:43;91461.00;;;9.00
7882;BMP180;3986;41.884;23.466;2022-12-10T03:41:10;91456.00;;;9.00
7882;BMP180;3986;41.884;23.466;2022-12-10T03:43:50;91466.00;;;9.20
7882;BMP180;3986;41.884;23.466;2022-12-10T03:46:37;91442.00;;;9.40
7882;BMP180;3986;41.884;23.466;2022-12-10T03:49:04;91447.00;;;9.50
7882;BMP180;3986;41.884;23.466;2022-12-10T03:51:31;91439.00;;;9.50
7882;BMP180;3986;41.884;23.466;2022-12-10T03:53:57;91428.00;;;9.50
7882;BMP180;3986;41.884;23.466;2022-12-10T03:56:24;91434.00;;;9.50
7882;BMP180;3986;41.884;23.466;2022-12-10T03:58:51;91435.00;;;9.40
7882;BMP180;3986;41.884;23.466;2022-12-10T04:01:18;91438.00;;;9.40
7882;BMP180;3986;41.884;23.466;2022-12-10T04:03:46;91442.00;;;9.50
7882;BMP180;3986;41.884;23.466;2022-12-10T04:06:16;91443.00;;;9.10
7882;BMP180;3986;41.884;23.466;2022-12-10T04:08:44;91444.00;;;9.20
7882;BMP180;3986;41.884;23.466;2022-12-10T04:11:12;91442.00;;;9.20
7882;BMP180;3986;41.884;23.466;2022-12-10T04:13:40;91436.00;;;9.10
7882;BMP180;3986;41.884;23.466;2022-12-10T04:16:24;91451.00;;;9.40
7882;BMP180;3986;41.884;23.466;2022-12-10T04:18:57;91437.00;;;9.50
7882;BMP180;3986;41.884;23.466;2022-12-10T04:21:24;91437.00;;;9.20
7882;BMP180;3986;41.884;23.466;2022-12-10T04:24:08;91443.00;;;8.90
7882;BMP180;3986;41.884;23.466;2022-12-10T04:26:53;91446.00;;;8.70
7882;BMP180;3986;41.884;23.466;2022-12-10T04:29:21;91388.00;;;8.90
7882;BMP180;3986;41.884;23.466;2022-12-10T04:31:48;91449.00;;;8.80
7882;BMP180;3986;41.884;23.466;2022-12-10T04:34:16;91446.00;;;9.00
7882;BMP180;3986;41.884;23.466;2022-12-10T04:36:43;91448.00;;;8.90
7882;BMP180;3986;41.884;23.466;2022-12-10T04:39:10;91446.00;;;8.80
7882;BMP180;3986;41.884;23.466;2022-12-10T04:41:38;91450.00;;;9.20
7882;BMP180;3986;41.884;23.466;2022-12-10T04:44:05;91448.00;;;9.20
7882;BMP180;3986;41.884;23.466;2022-12-10T04:46:32;91444.00;;;9.10
7882;BMP180;3986;41.884;23.466;2022-12-10T04:48:59;91430.00;;;8.90
7882;BMP180;3986;41.884;23.466;2022-12-10T04:51:27;91422.00;;;9.10
7882;BMP180;3986;41.884;23.466;2022-12-10T04:53:54;91418.00;;;9.30
7882;BMP180;3986;41.884;23.466;2022-12-10T04:56:21;91409.00;;;9.30
7882;BMP180;3986;41.884;23.466;2022-12-10T04:58:48;91421.00;;;9.40
7882;BMP180;3986;41.884;23.466;2022-12-10T05:01:15;91405.00;;;9.40
7882;BMP180;3986;41.884;23.466;2022-12-10T05:03:43;91418.00;;;9.40
7882;BMP180;3986;41.884;23.466;2022-12-10T05:06:12;91379.00;;;9.40
7882;BMP180;3986;41.884;23.466;2022-12-10T05:08:41;91420.00;;;9.10
7882;BMP180;3986;41.884;23.466;2022-12-10T05:11:10;91421.00;;;9.10
7882;BMP180;3986;41.884;23.466;2022-12-10T05:13:37;91406.00;;;9.30
7882;BMP180;3986;41.884;23.466;2022-12-10T05:16:06;91411.00;;;9.40
7882;BMP180;3986;41.884;23.466;2022-12-10T05:18:33;91419.00;;;9.10
7882;BMP180;3986;41.884;23.466;2022-12-10T05:21:01;91435.00;;;9.20
7882;BMP180;3986;41.884;23.466;2022-12-10T05:23:28;91428.00;;;9.10
7882;BMP180;3986;41.884;23.466;2022-12-10T05:26:00;91426.00;;;9.10
7882;BMP180;3986;41.884;23.466;2022-12-10T05:28:27;91427.00;;;8.80
7882;BMP180;3986;41.884;23.466;2022-12-10T05:30:55;91410.00;;;8.90
7882;BMP180;3986;41.884;23.466;2022-12-10T05:33:22;91430.00;;;8.90
7882;BMP180;3986;41.884;23.466;2022-12-10T05:35:53;91424.00;;;9.00
7882;BMP180;3986;41.884;23.466;2022-12-10T05:38:21;91415.00;;;9.00
7882;BMP180;3986;41.884;23.466;2022-12-10T05:40:47;91418.00;;;9.20
7882;BMP180;3986;41.884;23.466;2022-12-10T05:43:16;91425.00;;;9.20
7882;BMP180;3986;41.884;23.466;2022-12-10T05:45:43;91422.00;;;9.40
7882;BMP180;3986;41.884;23.466;2022-12-10T05:48:10;91453.00;;;9.70
7882;BMP180;3986;41.884;23.466;2022-12-10T05:50:37;91440.00;;;9.50
7882;BMP180;3986;41.884;23.466;2022-12-10T05:53:04;91459.00;;;9.10
7882;BMP180;3986;41.884;23.466;2022-12-10T05:55:31;91466.00;;;9.20
7882;BMP180;3986;41.884;23.466;2022-12-10T05:57:58;91472.00;;;9.30
7882;BMP180;3986;41.884;23.466;2022-12-10T06:00:27;91413.00;;;9.10
7882;BMP180;3986;41.884;23.466;2022-12-10T06:02:54;91460.00;;;9.20
7882;BMP180;3986;41.884;23.466;2022-12-10T06:05:20;91452.00;;;9.50
7882;BMP180;3986;41.884;23.466;2022-12-10T06:07:47;91444.00;;;9.50
7882;BMP180;3986;41.884;23.466;2022-12-10T06:10:14;91446.00;;;9.30
7882;BMP180;3986;41.884;23.466;2022-12-10T06:12:41;91435.00;;;9.40
7882;BMP180;3986;41.884;23.466;2022-12-10T06:15:09;91442.00;;;9.40
7882;BMP180;3986;41.884;23.466;2022-12-10T06:17:37;91446.00;;;9.10
7882;BMP180;3986;41.884;23.466;2022-12-10T06:20:05;91457.00;;;9.40
7882;BMP180;3986;41.884;23.466;2022-12-10T06:22:33;91441.00;;;9.10
7882;BMP180;3986;41.884;23.466;2022-12-10T06:25:00;91437.00;;;9.50
7882;BMP180;3986;41.884;23.466;2022-12-10T06:27:29;91447.00;;;9.40
7882;BMP180;3986;41.884;23.466;2022-12-10T06:29:56;91446.00;;;9.70
7882;BMP180;3986;41.884;23.466;2022-12-10T06:32:23;91440.00;;;9.90
7882;BMP180;3986;41.884;23.466;2022-12-10T06:34:51;91342.00;;;10.00
7882;BMP180;3986;41.884;23.466;2022-12-10T06:37:17;91439.00;;;9.70
7882;BMP180;3986;41.884;23.466;2022-12-10T06:39:44;91443.00;;;9.40
7882;BMP180;3986;41.884;23.466;2022-12-10T06:42:11;91444.00;;;9.50
7882;BMP180;3986;41.884;23.466;2022-12-10T06:44:38;91450.00;;;9.70
7882;BMP180;3986;41.884;23.466;2022-12-10T06:47:05;91461.00;;;9.40
7882;BMP180;3986;41.884;23.466;2022-12-10T06:49:31;91452.00;;;9.40
7882;BMP180;3986;41.884;23.466;2022-12-10T06:51:59;91336.00;;;9.80
7882;BMP180;3986;41.884;23.466;2022-12-10T06:54:26;91438.00;;;9.90
7882;BMP180;3986;41.884;23.466;2022-12-10T06:56:53;91449.00;;;10.00
7882;BMP180;3986;41.884;23.466;2022-12-10T06:59:20;91437.00;;;10.00
7882;BMP180;3986;41.884;23.466;2022-12-10T07:01:47;91436.00;;;10.00
7882;BMP180;3986;41.884;23.466;2022-12-10T07:04:14;91436.00;;;10.10
7882;BMP180;3986;41.884;23.466;2022-12-10T07:06:41;91430.00;;;10.20
7882;BMP180;3986;41.884;23.466;2022-12-10T07:09:09;91462.00;;;10.30
7882;BMP180;3986;41.884;23.466;2022-12-10T07:11:36;91451.00;;;10.00
7882;BMP180;3986;41.884;23.466;2022-12-10T07:14:03;91454.00;;;9.50
7882;BMP180;3986;41.884;23.466;2022-12-10T07:16:31;91469.00;;;9.60
7882;BMP180;3986;41.884;23.466;2022-12-10T07:19:00;91480.00;;;9.80
7882;BMP180;3986;41.884;23.466;2022-12-10T07:21:28;91490.00;;;9.60
7882;BMP180;3986;41.884;23.466;2022-12-10T07:23:57;91468.00;;;9.80
7882;BMP180;3986;41.884;23.466;2022-12-10T07:26:28;91462.00;;;10.00
7882;BMP180;3986;41.884;23.466;2022-12-10T07:28:55;91450.00;;;10.00
7882;BMP180;3986;41.884;23.466;2022-12-10T07:31:22;91448.00;;;9.90
7882;BMP180;3986;41.884;23.466;2022-12-10T07:33:49;91463.00;;;9.60
7882;BMP180;3986;41.884;23.466;2022-12-10T07:36:17;91484.00;;;9.30
7882;BMP180;3986;41.884;23.466;2022-12-10T07:38:43;91477.00;;;9.50
7882;BMP180;3986;41.884;23.466;2022-12-10T07:41:12;91472.00;;;9.60
7882;BMP180;3986;41.884;23.466;2022-12-10T07:43:42;91461.00;;;10.00
7882;BMP180;3986;41.884;23.466;2022-12-10T07:46:11;91455.00;;;10.10
7882;BMP180;3986;41.884;23.466;2022-12-10T07:48:39;91458.00;;;10.10
7882;BMP180;3986;41.884;23.466;2022-12-10T07:51:07;91466.00;;;9.80
7882;BMP180;3986;41.884;23.466;2022-12-10T07:53:35;91455.00;;;10.00
7882;BMP180;3986;41.884;23.466;2022-12-10T07:56:02;91466.00;;;10.20
7882;BMP180;3986;41.884;23.466;2022-12-10T07:58:30;91463.00;;;9.70
7882;BMP180;3986;41.884;23.466;2022-12-10T08:00:58;91466.00;;;9.40
7882;BMP180;3986;41.884;23.466;2022-12-10T08:03:25;91464.00;;;10.00
7882;BMP180;3986;41.884;23.466;2022-12-10T08:06:00;91316.00;;;10.30
7882;BMP180;3986;41.884;23.466;2022-12-10T08:08:27;91352.00;;;10.10
7882;BMP180;3986;41.884;23.466;2022-12-10T08:10:54;91463.00;;;9.90
7882;BMP180;3986;41.884;23.466;2022-12-10T08:13:21;91462.00;;;10.00
7882;BMP180;3986;41.884;23.466;2022-12-10T08:15:47;91456.00;;;10.10
7882;BMP180;3986;41.884;23.466;2022-12-10T08:18:16;91446.00;;;10.20
7882;BMP180;3986;41.884;23.466;2022-12-10T08:20:42;91458.00;;;10.20
7882;BMP180;3986;41.884;23.466;2022-12-10T08:23:09;91464.00;;;9.90
7882;BMP180;3986;41.884;23.466;2022-12-10T08:25:36;91454.00;;;10.30
7882;BMP180;3986;41.884;23.466;2022-12-10T08:28:03;91450.00;;;10.10
7882;BMP180;3986;41.884;23.466;2022-12-10T08:30:30;91449.00;;;10.00
7882;BMP180;3986;41.884;23.466;2022-12-10T08:32:57;91443.00;;;10.40
7882;BMP180;3986;41.884;23.466;2022-12-10T08:35:25;91444.00;;;10.60
7882;BMP180;3986;41.884;23.466;2022-12-10T08:37:52;91340.00;;;10.70
7882;BMP180;3986;41.884;23.466;2022-12-10T08:40:19;91459.00;;;10.80
7882;BMP180;3986;41.884;23.466;2022-12-10T08:42:46;91435.00;;;10.90
7882;BMP180;3986;41.884;23.466;2022-12-10T08:45:12;91427.00;;;10.70
7882;BMP180;3986;41.884;23.466;2022-12-10T08:47:39;91427.00;;;11.00
7882;BMP180;3986;41.884;23.466;2022-12-10T08:50:06;91425.00;;;11.20
7882;BMP180;3986;41.884;23.466;2022-12-10T08:52:35;91422.00;;;11.10
7882;BMP180;3986;41.884;23.466;2022-12-10T08:55:01;91416.00;;;11.20
7882;BMP180;3986;41.884;23.466;2022-12-10T08:57:28;91415.00;;;11.30
7882;BMP180;3986;41.884;23.466;2022-12-10T08:59:55;91409.00;;;11.30
7882;BMP180;3986;41.884;23.466;2022-12-10T09:02:22;91406.00;;;11.40
7882;BMP180;3986;41.884;23.466;2022-12-10T09:04:49;91407.00;;;11.30
7882;BMP180;3986;41.884;23.466;2022-12-10T09:07:16;91399.00;;;11.30
7882;BMP180;3986;41.884;23.466;2022-12-10T09:09:44;91401.00;;;11.40
7882;BMP180;3986;41.884;23.466;2022-12-10T09:12:11;91400.00;;;11.10
7882;BMP180;3986;41.884;23.466;2022-12-10T09:14:38;91403.00;;;11.00
7882;BMP180;3986;41.884;23.466;2022-12-10T09:17:05;91392.00;;;11.20
7882;BMP180;3986;41.884;23.466;2022-12-10T09:19:32;91387.00;;;10.70
7882;BMP180;3986;41.884;23.466;2022-12-10T09:21:59;91386.00;;;11.10
7882;BMP180;3986;41.884;23.466;2022-12-10T09:24:26;91390.00;;;10.90
7882;BMP180;3986;41.884;23.466;2022-12-10T09:26:55;91369.00;;;11.20
7882;BMP180;3986;41.884;23.466;2022-12-10T09:29:22;91376.00;;;11.30
7882;BMP180;3986;41.884;23.466;2022-12-10T09:31:50;91360.00;;;11.60
7882;BMP180;3986;41.884;23.466;2022-12-10T09:34:17;91371.00;;;11.90
7882;BMP180;3986;41.884;23.466;2022-12-10T09:36:45;91356.00;;;11.80
7882;BMP180;3986;41.884;23.466;2022-12-10T09:39:12;91242.00;;;12.00
7882;BMP180;3986;41.884;23.466;2022-12-10T09:42:16;91351.00;;;11.90
7882;BMP180;3986;41.884;23.466;2022-12-10T09:44:52;91343.00;;;11.80
7882;BMP180;3986;41.884;23.466;2022-12-10T09:47:21;91337.00;;;11.60
7882;BMP180;3986;41.884;23.466;2022-12-10T09:49:57;91365.00;;;11.70
7882;BMP180;3986;41.884;23.466;2022-12-10T09:52:33;91344.00;;;11.90
7882;BMP180;3986;41.884;23.466;2022-12-10T09:55:05;91341.00;;;11.50
7882;BMP180;3986;41.884;23.466;2022-12-10T09:57:40;91349.00;;;11.40
7882;BMP180;3986;41.884;23.466;2022-12-10T10:00:19;91351.00;;;11.80
7882;BMP180;3986;41.884;23.466;2022-12-10T10:02:46;91332.00;;;12.00
7882;BMP180;3986;41.884;23.466;2022-12-10T10:05:19;91323.00;;;11.90
7882;BMP180;3986;41.884;23.466;2022-12-10T10:07:49;91328.00;;;11.70
7882;BMP180;3986;41.884;23.466;2022-12-10T10:10:22;91313.00;;;11.40
7882;BMP180;3986;41.884;23.466;2022-12-10T10:12:53;91307.00;;;11.80
7882;BMP180;3986;41.884;23.466;2022-12-10T10:15:25;91302.00;;;11.80
7882;BMP180;3986;41.884;23.466;2022-12-10T10:17:54;91305.00;;;12.00
7882;BMP180;3986;41.884;23.466;2022-12-10T10:20:23;91312.00;;;11.60
7882;BMP180;3986;41.884;23.466;2022-12-10T10:22:50;91302.00;;;12.30
7882;BMP180;3986;41.884;23.466;2022-12-10T10:25:18;91314.00;;;12.50
7882;BMP180;3986;41.884;23.466;2022-12-10T10:27:45;91300.00;;;12.30
7882;BMP180;3986;41.884;23.466;2022-12-10T10:30:16;91294.00;;;12.60
7882;BMP180;3986;41.884;23.466;2022-12-10T10:32:48;91290.00;;;12.40
7882;BMP180;3986;41.884;23.466;2022-12-10T10:35:25;91291.00;;;12.30
7882;BMP180;3986;41.884;23.466;2022-12-10T10:37:56;91288.00;;;12.00
7882;BMP180;3986;41.884;23.466;2022-12-10T10:40:27;91290.00;;;12.10
7882;BMP180;3986;41.884;23.466;2022-12-10T10:42:56;91290.00;;;12.60
7882;BMP180;3986;41.884;23.466;2022-12-10T10:45:37;91284.00;;;13.10
7882;BMP180;3986;41.884;23.466;2022-12-10T10:48:09;91306.00;;;13.20
7882;BMP180;3986;41.884;23.466;2022-12-10T10:50:39;91305.00;;;13.20
7882;BMP180;3986;41.884;23.466;2022-12-10T10:53:29;91283.00;;;13.20
7882;BMP180;3986;41.884;23.466;2022-12-10T10:55:59;91276.00;;;12.30
7882;BMP180;3986;41.884;23.466;2022-12-10T10:58:31;91277.00;;;12.00
7882;BMP180;3986;41.884;23.466;2022-12-10T11:01:01;91270.00;;;12.20
7882;BMP180;3986;41.884;23.466;2022-12-10T11:03:30;91273.00;;;12.70
7882;BMP180;3986;41.884;23.466;2022-12-10T11:05:58;91293.00;;;12.80
7882;BMP180;3986;41.884;23.466;2022-12-10T11:08:28;91243.00;;;12.40
7882;BMP180;3986;41.884;23.466;2022-12-10T11:10:58;91270.00;;;12.60
7882;BMP180;3986;41.884;23.466;2022-12-10T11:13:29;91286.00;;;12.60
7882;BMP180;3986;41.884;23.466;2022-12-10T11:16:01;91255.00;;;12.40
7882;BMP180;3986;41.884;23.466;2022-12-10T11:18:34;91269.00;;;12.60
7882;BMP180;3986;41.884;23.466;2022-12-10T11:21:04;91261.00;;;12.50
7882;BMP180;3986;41.884;23.466;2022-12-10T11:23:37;91251.00;;;12.70
7882;BMP180;3986;41.884;23.466;2022-12-10T11:29:17;91240.00;;;12.60
7882;BMP180;3986;41.884;23.466;2022-12-10T11:31:57;91232.00;;;12.80
7882;BMP180;3986;41.884;23.466;2022-12-10T11:34:38;91229.00;;;12.60
7882;BMP180;3986;41.884;23.466;2022-12-10T11:37:13;91234.00;;;12.80
7882;BMP180;3986;41.884;23.466;2022-12-10T11:40:06;91223.00;;;12.70
7882;BMP180;3986;41.884;23.466;2022-12-10T11:42:43;91218.00;;;12.70
7882;BMP180;3986;41.884;23.466;2022-12-10T11:45:17;91219.00;;;12.80
7882;BMP180;3986;41.884;23.466;2022-12-10T11:47:54;91222.00;;;12.80
7882;BMP180;3986;41.884;23.466;2022-12-10T11:50:27;91084.00;;;12.60
7882;BMP180;3986;41.884;23.466;2022-12-10T11:53:11;91219.00;;;12.60
7882;BMP180;3986;41.884;23.466;2022-12-10T11:55:50;91208.00;;;12.50
7882;BMP180;3986;41.884;23.466;2022-12-10T11:58:35;90939.00;;;12.50
7882;BMP180;3986;41.884;23.466;2022-12-10T12:01:08;91202.00;;;12.40
7882;BMP180;3986;41.884;23.466;2022-12-10T12:04:02;91207.00;;;12.40
7882;BMP180;3986;41.884;23.466;2022-12-10T12:06:50;91195.00;;;12.40
7882;BMP180;3986;41.884;23.466;2022-12-10T12:09:27;91168.00;;;12.60
7882;BMP180;3986;41.884;23.466;2022-12-10T12:12:06;91170.00;;;12.30
7882;BMP180;3986;41.884;23.466;2022-12-10T12:14:41;91176.00;;;12.20
7882;BMP180;3986;41.884;23.466;2022-12-10T12:17:13;91177.00;;;12.30
7882;BMP180;3986;41.884;23.466;2022-12-10T12:19:46;91180.00;;;12.00
7882;BMP180;3986;41.884;23.466;2022-12-10T12:22:23;91188.00;;;11.80
7882;BMP180;3986;41.884;23.466;2022-12-10T12:24:53;91193.00;;;11.80
7882;BMP180;3986;41.884;23.466;2022-12-10T12:27:25;91132.00;;;12.20
7882;BMP180;3986;41.884;23.466;2022-12-10T12:30:01;91174.00;;;12.00
7882;BMP180;3986;41.884;23.466;2022-12-10T12:32:31;91190.00;;;11.70
7882;BMP180;3986;41.884;23.466;2022-12-10T12:35:08;91176.00;;;11.90
7882;BMP180;3986;41.884;23.466;2022-12-10T12:37:42;91187.00;;;12.20
7882;BMP180;3986;41.884;23.466;2022-12-10T12:40:13;91177.00;;;12.00
7882;BMP180;3986;41.884;23.466;2022-12-10T12:42:46;91174.00;;;12.00
7882;BMP180;3986;41.884;23.466;2022-12-10T12:45:17;91168.00;;;11.60
7882;BMP180;3986;41.884;23.466;2022-12-10T12:47:49;91195.00;;;11.90
7882;BMP180;3986;41.884;23.466;2022-12-10T12:50:30;91182.00;;;11.60
7882;BMP180;3986;41.884;23.466;2022-12-10T12:53:11;91159.00;;;12.00
7882;BMP180;3986;41.884;23.466;2022-12-10T12:55:44;91170.00;;;12.00
7882;BMP180;3986;41.884;23.466;2022-12-10T12:58:22;91174.00;;;12.10
7882;BMP180;3986;41.884;23.466;2022-12-10T13:00:55;91167.00;;;11.70
7882;BMP180;3986;41.884;23.466;2022-12-10T13:03:35;91170.00;;;11.70
7882;BMP180;3986;41.884;23.466;2022-12-10T13:06:16;91160.00;;;11.80
7882;BMP180;3986;41.884;23.466;2022-12-10T13:08:45;91160.00;;;11.80
7882;BMP180;3986;41.884;23.466;2022-12-10T13:11:19;91160.00;;;11.60
7882;BMP180;3986;41.884;23.466;2022-12-10T13:14:29;91161.00;;;11.70
7882;BMP180;3986;41.884;23.466;2022-12-10T13:17:07;91151.00;;;11.90
7882;BMP180;3986;41.884;23.466;2022-12-10T13:19:34;91150.00;;;12.10
7882;BMP180;3986;41.884;23.466;2022-12-10T13:22:06;91150.00;;;12.20
7882;BMP180;3986;41.884;23.466;2022-12-10T13:25:05;91152.00;;;11.80
7882;BMP180;3986;41.884;23.466;2022-12-10T13:27:34;91008.00;;;11.70
7882;BMP180;3986;41.884;23.466;2022-12-10T13:30:05;91142.00;;;11.80
7882;BMP180;3986;41.884;23.466;2022-12-10T13:32:46;91148.00;;;11.80
7882;BMP180;3986;41.884;23.466;2022-12-10T13:35:27;91130.00;;;11.70
7882;BMP180;3986;41.884;23.466;2022-12-10T13:37:58;91141.00;;;11.60
7882;BMP180;3986;41.884;23.466;2022-12-10T13:40:39;91137.00;;;11.50
7882;BMP180;3986;41.884;23.466;2022-12-10T13:43:27;91130.00;;;11.90
7882;BMP180;3986;41.884;23.466;2022-12-10T13:46:23;91119.00;;;12.00
7882;BMP180;3986;41.884;23.466;2022-12-10T13:48:52;91123.00;;;11.70
7882;BMP180;3986;41.884;23.466;2022-12-10T13:51:37;91117.00;;;11.70
7882;BMP180;3986;41.884;23.466;2022-12-10T13:54:28;91128.00;;;12.00
7882;BMP180;3986;41.884;23.466;2022-12-10T13:57:03;91132.00;;;11.80
7882;BMP180;3986;41.884;23.466;2022-12-10T13:59:40;91133.00;;;11.50
7882;BMP180;3986;41.884;23.466;2022-12-10T14:02:37;91126.00;;;11.70
7882;BMP180;3986;41.884;23.466;2022-12-10T14:05:23;91120.00;;;11.90
7882;BMP180;3986;41.884;23.466;2022-12-10T14:07:52;91120.00;;;11.90
7882;BMP180;3986;41.884;23.466;2022-12-10T14:10:26;91128.00;;;12.00
7882;BMP180;3986;41.884;23.466;2022-12-10T14:12:54;91117.00;;;11.70
7882;BMP180;3986;41.884;23.466;2022-12-10T14:15:23;91130.00;;;11.20
7882;BMP180;3986;41.884;23.466;2022-12-10T14:17:53;91133.00;;;11.30
7882;BMP180;3986;41.884;23.466;2022-12-10T14:20:23;91120.00;;;11.40
7882;BMP180;3986;41.884;23.466;2022-12-10T14:22:52;91116.00;;;11.70
7882;BMP180;3986;41.884;23.466;2022-12-10T14:25:44;91112.00;;;11.90
7882;BMP180;3986;41.884;23.466;2022-12-10T14:28:12;90940.00;;;11.80
7882;BMP180;3986;41.884;23.466;2022-12-10T14:30:42;91006.00;;;11.30
7882;BMP180;3986;41.884;23.466;2022-12-10T14:33:12;91092.00;;;11.20
7882;BMP180;3986;41.884;23.466;2022-12-10T14:35:41;91083.00;;;11.60
7882;BMP180;3986;41.884;23.466;2022-12-10T14:38:16;91078.00;;;11.70
7882;BMP180;3986;41.884;23.466;2022-12-10T14:40:45;91076.00;;;11.50
7882;BMP180;3986;41.884;23.466;2022-12-10T14:43:15;90981.00;;;11.60
7882;BMP180;3986;41.884;23.466;2022-12-10T14:45:46;91010.00;;;11.40
7882;BMP180;3986;41.884;23.466;2022-12-10T14:48:14;91047.00;;;11.60
7882;BMP180;3986;41.884;23.466;2022-12-10T14:50:42;91054.00;;;11.70
7882;BMP180;3986;41.884;23.466;2022-12-10T14:53:14;91063.00;;;11.60